Terminal Aerodrome Forecast
Issued by NWS

Home | Current Version | Previous Version | Text Only | Print | Product List | Glossary On
Versions: 1 2 3 4 5 6 7 8 9 10 11 12 13 14 15 16 17 18 19 20 21 22 23 24 25
531
FTPQ31 PGUM 270306 AAK
TAFKWA
TAF AMD
PKWA 270306Z 2703/2724 11011KT P6SM VCTS SCT016CB SCT050 BKN110
      TEMPO 2703/2705 VRB06KT 2SM +TSRA SCT012CB BKN020
     FM270600 11010KT P6SM VCSH SCT016 SCT040 BKN100=

USA.gov is the U.S. government's official web portal to all federal, state and local government web resources and services.